Time;durP1;ratioP1;P1;durP2;ratioP2;P2;SDS_P1;SDS_P2;PMS_P1;PMS_P2;Temp;Humidity;BMP_temperature;BMP_pressure;BME280_temperature;BME280_humidity;BME280_pressure;Samples;Min_cycle;Max_cycle;Signal;HPM_P1;HPM_P2
2023/08/13 00:01:26;;;;;;;4.60;2.73;;;18.80;99.90;;;18.53;81.78;101028.13;5054393;28;20214;-73
2023/08/13 00:03:58;;;;;;;3.83;2.47;;;18.80;99.90;;;18.53;81.72;101030.00;5053650;28;20229;-73
2023/08/13 00:06:31;;;;;;;4.00;2.43;;;18.80;99.90;;;18.50;81.79;101033.09;5053576;28;20214;-73
2023/08/13 00:09:04;;;;;;;3.43;2.20;;;18.80;99.90;;;18.53;81.26;101033.56;5053736;28;20281;-74
2023/08/13 00:11:35;;;;;;;5.50;2.60;;;18.80;99.90;;;18.53;80.94;101038.16;5053652;28;20203;-74
2023/08/13 00:14:08;;;;;;;2.70;2.40;;;18.80;99.90;;;18.54;80.88;101029.81;5053603;28;20276;-73
2023/08/13 00:16:40;;;;;;;4.67;2.40;;;18.90;99.90;;;18.54;80.17;101027.09;5053630;28;20273;-73
2023/08/13 00:19:12;;;;;;;3.80;2.40;;;18.80;99.90;;;18.47;80.15;101019.97;5053600;28;20237;-73
2023/08/13 00:21:45;;;;;;;4.40;2.30;;;18.80;99.90;;;18.47;79.77;101023.50;5053596;28;20218;-73
2023/08/13 00:24:37;;;;;;;5.10;2.40;;;18.80;99.90;;;18.47;80.02;101019.97;5053939;28;20596;-73
2023/08/13 00:27:09;;;;;;;3.70;2.57;;;18.70;99.90;;;18.46;80.20;101021.84;5053437;28;20220;-73
2023/08/13 00:29:41;;;;;;;4.10;2.30;;;18.70;99.90;;;18.42;79.70;101019.75;5053451;28;20289;-73
2023/08/13 00:32:13;;;;;;;3.60;2.63;;;18.80;99.90;;;18.45;80.42;101014.75;5053346;28;20603;-73
2023/08/13 00:34:45;;;;;;;3.47;2.50;;;18.80;99.90;;;18.40;81.01;101022.66;5053411;28;20190;-73
2023/08/13 00:37:18;;;;;;;2.87;2.53;;;18.70;99.90;;;18.35;80.96;101014.31;5053400;28;20191;-73
2023/08/13 00:39:50;;;;;;;4.70;2.83;;;18.60;99.90;;;18.32;81.55;101020.16;5053092;28;20285;-73
2023/08/13 00:42:22;;;;;;;3.77;2.93;;;18.60;99.90;;;18.30;82.01;101021.38;5053478;28;20217;-73
2023/08/13 00:44:54;;;;;;;3.60;3.30;;;18.60;99.90;;;18.25;82.58;101028.22;5052976;28;20739;-73
2023/08/13 00:47:26;;;;;;;5.03;3.27;;;18.50;99.90;;;18.22;83.29;101035.94;5052881;28;20222;-73
2023/08/13 00:49:59;;;;;;;3.77;3.23;;;18.50;99.90;;;18.25;83.66;101040.97;5053284;28;20190;-73
2023/08/13 00:52:32;;;;;;;3.60;2.77;;;18.60;99.90;;;18.23;83.65;101037.63;5052912;28;20595;-73
2023/08/13 00:55:04;;;;;;;3.83;3.10;;;18.50;99.90;;;18.22;83.93;101035.94;5053252;28;20281;-73
2023/08/13 00:57:36;;;;;;;6.13;3.43;;;18.50;99.90;;;18.20;83.88;101038.03;5053213;28;20273;-73
2023/08/13 01:00:11;;;;;;;5.43;3.40;;;18.50;99.90;;;18.16;84.76;101042.16;5053202;28;20190;-73
2023/08/13 01:02:43;;;;;;;4.00;3.47;;;18.40;99.90;;;18.11;84.89;101033.81;5053088;28;20304;-73
2023/08/13 01:05:15;;;;;;;6.23;3.60;;;18.40;99.90;;;18.09;85.38;101044.00;5053135;28;20195;-73
2023/08/13 01:08:04;;;;;;;5.40;3.37;;;18.40;99.90;;;18.08;85.43;101035.03;5054494;28;20210;-73
2023/08/13 01:10:40;;;;;;;4.77;4.00;;;18.40;99.90;;;18.09;85.39;101035.88;5057031;28;20197;-73
2023/08/13 01:13:23;;;;;;;7.13;3.73;;;18.40;99.90;;;18.12;84.98;101040.91;5056915;28;20745;-73
2023/08/13 01:15:59;;;;;;;4.27;3.40;;;18.50;99.90;;;18.13;85.03;101045.28;5056969;28;20244;-73
2023/08/13 01:18:33;;;;;;;4.90;4.40;;;18.50;99.90;;;18.14;84.92;101038.84;5056892;28;20190;-73
2023/08/13 01:21:05;;;;;;;4.97;3.73;;;18.50;99.90;;;18.14;85.08;101044.25;5056857;28;20202;-74
2023/08/13 01:23:38;;;;;;;5.57;3.87;;;18.50;99.90;;;18.11;85.11;101042.78;5056743;28;20230;-75
2023/08/13 01:26:22;;;;;;;4.53;4.10;;;18.40;99.90;;;18.11;85.68;101041.97;5056780;28;20277;-75
2023/08/13 01:29:04;;;;;;;5.03;4.20;;;18.40;99.90;;;18.04;86.40;101044.63;5056682;28;20276;-75
2023/08/13 01:31:43;;;;;;;4.80;3.80;;;18.30;99.90;;;18.04;85.79;101050.06;5056504;28;20289;-75
2023/08/13 01:34:18;;;;;;;4.70;4.10;;;18.40;99.90;;;18.00;85.74;101050.66;5056527;28;20226;-75
2023/08/13 01:36:51;;;;;;;3.90;3.50;;;18.50;99.90;;;18.01;85.49;101049.63;5056576;28;20190;-75
2023/08/13 01:39:25;;;;;;;7.57;4.03;;;18.40;99.90;;;17.94;85.28;101055.00;5056523;28;20186;-75
2023/08/13 01:41:57;;;;;;;6.00;3.93;;;18.30;99.90;;;17.96;85.70;101062.91;5056460;28;20191;-75
2023/08/13 01:44:29;;;;;;;3.77;3.20;;;18.30;99.90;;;17.95;86.08;101053.09;5056009;28;20593;-76
2023/08/13 01:47:01;;;;;;;5.77;3.90;;;18.30;99.90;;;17.94;86.54;101054.16;5055952;28;20226;-76
2023/08/13 01:49:33;;;;;;;5.83;3.60;;;18.30;99.90;;;17.86;86.33;101057.88;5056010;28;20236;-76
2023/08/13 01:52:05;;;;;;;4.63;3.70;;;18.20;99.90;;;17.83;86.84;101046.59;5056274;28;20201;-76
2023/08/13 01:54:38;;;;;;;4.43;3.40;;;18.10;99.90;;;17.83;86.73;101052.84;5056244;28;20221;-76
2023/08/13 01:57:10;;;;;;;5.20;3.30;;;18.20;99.90;;;17.81;86.99;101054.09;5056222;28;20222;-76
2023/08/13 01:59:42;;;;;;;5.60;3.93;;;18.20;99.90;;;17.82;86.37;101056.59;5056134;28;20194;-76
2023/08/13 02:02:14;;;;;;;5.63;3.90;;;18.20;99.90;;;17.77;87.08;101047.41;5056028;28;20193;-76
2023/08/13 02:04:47;;;;;;;3.73;3.33;;;18.10;99.90;;;17.76;86.46;101048.44;5055749;28;20195;-76
2023/08/13 02:07:19;;;;;;;4.97;3.60;;;18.10;99.90;;;17.74;86.75;101054.03;5055978;28;20214;-76
2023/08/13 02:09:52;;;;;;;4.50;3.53;;;18.10;99.90;;;17.71;86.92;101046.31;5055947;28;20264;-76
2023/08/13 02:12:24;;;;;;;6.23;3.67;;;18.10;99.90;;;17.74;86.63;101044.03;5055999;28;20625;-76
2023/08/13 02:14:55;;;;;;;5.10;3.90;;;18.10;99.90;;;17.69;86.28;101049.25;5055843;28;20186;-76
2023/08/13 02:17:27;;;;;;;4.67;3.23;;;18.10;99.90;;;17.68;86.02;101047.56;5055777;28;20298;-76
2023/08/13 02:19:59;;;;;;;6.17;3.43;;;18.10;99.90;;;17.66;85.79;101055.06;5055669;28;20187;-76
2023/08/13 02:22:31;;;;;;;4.27;3.60;;;18.00;99.90;;;17.65;85.58;101055.25;5055624;28;20229;-76
2023/08/13 02:25:05;;;;;;;6.13;3.40;;;18.00;99.90;;;17.63;85.79;101051.91;5055654;28;20199;-76
2023/08/13 02:27:37;;;;;;;5.37;3.33;;;18.00;99.90;;;17.61;85.48;101048.53;5055556;28;20241;-76
2023/08/13 02:30:12;;;;;;;4.50;3.90;;;18.00;99.90;;;17.52;86.89;101061.38;5055550;28;20190;-76
2023/08/13 02:32:44;;;;;;;7.17;3.60;;;17.90;99.90;;;17.53;86.45;101052.22;5055425;28;20229;-76
2023/08/13 02:35:16;;;;;;;8.87;3.70;;;17.90;99.90;;;17.55;86.15;101050.16;5055427;28;20214;-76
2023/08/13 02:37:48;;;;;;;6.03;3.20;;;17.90;99.90;;;17.53;86.03;101052.22;5055391;28;20190;-76
2023/08/13 02:40:21;;;;;;;5.40;3.17;;;17.90;99.90;;;17.53;85.55;101052.22;5055433;28;20233;-76
2023/08/13 02:42:53;;;;;;;6.60;3.40;;;17.80;99.90;;;17.51;85.37;101057.00;5055222;28;20309;-76
2023/08/13 02:45:23;;;;;;;4.70;3.20;;;17.90;99.90;;;17.48;85.63;101060.09;5055274;28;20281;-76
2023/08/13 02:47:56;;;;;;;5.13;3.03;;;17.90;99.90;;;17.46;85.61;101062.19;5054792;28;20720;-76
2023/08/13 02:50:28;;;;;;;3.23;2.93;;;17.80;99.90;;;17.46;86.01;101058.63;5055181;28;20200;-76
2023/08/13 02:53:00;;;;;;;3.83;3.00;;;17.90;99.90;;;17.44;85.14;101068.81;5055075;28;20229;-76
2023/08/13 02:55:33;;;;;;;6.70;4.23;;;17.80;99.90;;;17.38;89.06;101062.31;5055119;28;20190;-76
2023/08/13 02:58:06;;;;;;;7.07;3.70;;;17.70;99.90;;;17.35;87.74;101065.41;5055023;28;20190;-76
2023/08/13 03:00:41;;;;;;;6.70;4.73;;;17.70;99.90;;;17.37;88.50;101063.34;5054997;28;20190;-76
2023/08/13 03:03:13;;;;;;;6.23;3.93;;;17.70;99.90;;;17.35;87.63;101061.88;5054878;28;20593;-76
2023/08/13 03:05:45;;;;;;;6.83;4.70;;;17.70;99.90;;;17.35;89.84;101053.75;5054869;28;20222;-76
2023/08/13 03:08:15;;;;;;;4.13;3.60;;;17.70;99.90;;;17.33;88.61;101062.06;5054802;28;20287;-76
2023/08/13 03:10:48;;;;;;;6.40;4.27;;;17.80;99.90;;;17.34;88.19;101069.16;5055055;28;20206;-76
2023/08/13 03:13:19;;;;;;;7.50;4.40;;;17.70;99.90;;;17.36;89.38;101066.25;5054744;28;20296;-76
2023/08/13 03:15:51;;;;;;;6.23;4.63;;;17.70;99.90;;;17.30;90.28;101059.75;5054701;28;20197;-76
2023/08/13 03:18:23;;;;;;;5.97;4.60;;;17.70;99.90;;;17.30;90.36;101065.16;5054667;28;20190;-76
2023/08/13 03:20:55;;;;;;;6.50;4.07;;;17.70;99.90;;;17.33;89.52;101062.06;5054634;28;20191;-76
2023/08/13 03:23:27;;;;;;;4.67;4.00;;;17.70;99.90;;;17.36;88.87;101066.25;5055202;28;20244;-76
2023/08/13 03:26:00;;;;;;;8.30;4.43;;;17.80;99.90;;;17.36;88.81;101060.84;5054505;28;20194;-76
2023/08/13 03:28:32;;;;;;;4.40;4.00;;;17.80;99.90;;;17.36;89.56;101061.69;5054429;28;20224;-76
2023/08/13 03:31:04;;;;;;;7.40;4.40;;;17.70;99.90;;;17.35;88.59;101060.00;5053957;28;20285;-76
2023/08/13 03:33:36;;;;;;;6.50;3.93;;;17.80;99.90;;;17.36;88.29;101066.25;5054325;28;20225;-76
2023/08/13 03:36:09;;;;;;;6.87;4.13;;;17.70;99.90;;;17.35;87.96;101068.13;5053966;28;20620;-76
2023/08/13 03:38:43;;;;;;;5.07;4.50;;;17.80;99.90;;;17.36;88.57;101064.41;5053955;28;20643;-76
2023/08/13 03:41:16;;;;;;;4.40;3.90;;;17.80;99.90;;;17.37;88.38;101065.19;5054226;28;20286;-76
2023/08/13 03:43:48;;;;;;;5.33;3.70;;;17.80;99.90;;;17.37;89.13;101067.91;5054105;28;20597;-76
2023/08/13 03:46:20;;;;;;;5.80;4.40;;;17.80;99.90;;;17.35;89.46;101065.41;5053983;28;20218;-76
2023/08/13 03:48:52;;;;;;;5.17;4.10;;;17.80;99.90;;;17.32;90.13;101064.97;5054020;28;20230;-76
2023/08/13 03:51:24;;;;;;;6.87;4.70;;;17.70;99.90;;;17.28;90.97;101064.53;5054025;28;20239;-76
2023/08/13 03:53:56;;;;;;;8.07;4.77;;;17.70;99.90;;;17.26;91.66;101066.56;5053914;28;20256;-76
2023/08/13 03:56:29;;;;;;;5.83;4.20;;;17.70;99.90;;;17.21;91.67;101063.63;5054101;28;20290;-76
2023/08/13 03:59:01;;;;;;;7.83;4.80;;;17.70;99.90;;;17.19;91.87;101068.41;5053945;28;20190;-76
2023/08/13 04:01:33;;;;;;;6.80;4.60;;;17.60;99.90;;;17.17;92.05;101070.47;5053902;28;20194;-75
2023/08/13 04:04:04;;;;;;;7.43;4.60;;;17.70;99.90;;;17.11;92.28;101069.38;5053827;28;20353;-75
2023/08/13 04:06:37;;;;;;;7.77;4.60;;;17.60;99.90;;;17.11;93.01;101072.09;5053761;28;20202;-75
2023/08/13 04:09:09;;;;;;;5.23;4.10;;;17.50;99.90;;;17.08;93.18;101063.53;5053667;28;20297;-75
2023/08/13 04:11:42;;;;;;;7.43;5.00;;;17.60;99.90;;;17.08;92.98;101068.94;5053416;28;20281;-75
2023/08/13 04:14:14;;;;;;;8.37;5.20;;;17.50;99.90;;;17.07;93.46;101075.38;5053618;28;20309;-75
2023/08/13 04:16:46;;;;;;;7.23;4.50;;;17.50;99.90;;;17.06;93.56;101068.28;5053638;28;20197;-75
2023/08/13 04:19:18;;;;;;;7.13;4.90;;;17.60;99.90;;;17.07;92.75;101072.66;5053580;28;20226;-75
2023/08/13 04:21:50;;;;;;;5.57;4.40;;;17.50;99.90;;;17.07;92.49;101080.78;5053267;28;20286;-75
2023/08/13 04:24:22;;;;;;;9.30;4.73;;;17.80;99.90;;;17.03;92.82;101072.22;5053496;28;20280;-75
2023/08/13 04:26:55;;;;;;;7.27;4.37;;;17.50;99.90;;;17.05;93.10;101063.91;5053522;28;20186;-75
2023/08/13 04:29:27;;;;;;;8.77;4.87;;;17.50;99.90;;;17.02;92.60;101069.72;5053560;28;20217;-73
2023/08/13 04:31:59;;;;;;;10.77;4.37;;;17.60;99.90;;;17.04;93.16;101073.06;5053139;28;20637;-73
2023/08/13 04:34:31;;;;;;;6.17;4.23;;;17.50;99.90;;;17.04;93.02;101083.88;5053351;28;20312;-73
2023/08/13 04:37:03;;;;;;;6.17;4.40;;;17.50;99.90;;;17.02;92.94;101081.34;5053389;28;20248;-73
2023/08/13 04:39:35;;;;;;;5.73;4.10;;;17.50;99.90;;;17.03;93.38;101074.91;5053076;28;20641;-73
2023/08/13 04:42:08;;;;;;;5.50;4.63;;;17.50;99.90;;;17.01;92.87;101073.44;5053703;28;20233;-73
2023/08/13 04:44:40;;;;;;;8.37;5.03;;;17.50;99.90;;;16.98;93.47;101073.84;5057211;28;20285;-73
2023/08/13 04:47:12;;;;;;;4.83;4.30;;;17.50;99.90;;;16.97;93.59;101074.84;5057127;28;20249;-73
2023/08/13 04:49:44;;;;;;;7.40;4.57;;;17.50;99.90;;;16.98;92.75;101071.13;5057417;28;20303;-73
2023/08/13 04:52:16;;;;;;;6.97;4.97;;;17.50;99.90;;;16.93;93.13;101068.16;5057027;28;20655;-73
2023/08/13 04:54:50;;;;;;;9.23;4.80;;;17.50;99.90;;;16.93;93.80;101071.72;5057388;28;20244;-73
2023/08/13 04:57:23;;;;;;;8.23;4.30;;;17.40;99.90;;;16.92;93.22;101074.63;5057341;28;20244;-74
2023/08/13 04:59:55;;;;;;;7.67;4.50;;;17.40;99.90;;;16.94;94.01;101078.78;5057313;28;20270;-74
2023/08/13 05:02:27;;;;;;;9.23;5.13;;;17.40;99.90;;;16.94;93.86;101073.38;5057673;28;20197;-73
2023/08/13 05:04:59;;;;;;;8.67;4.50;;;17.40;99.90;;;16.94;93.77;101080.66;5057192;28;20277;-73
2023/08/13 05:07:31;;;;;;;9.73;4.90;;;17.40;99.90;;;16.96;93.79;101075.88;5057177;28;20194;-73
2023/08/13 05:10:03;;;;;;;9.17;4.80;;;17.40;99.90;;;16.99;92.96;101080.91;5057003;28;20298;-73
2023/08/13 05:12:36;;;;;;;7.13;5.13;;;17.50;99.90;;;16.95;93.81;101074.22;5056949;28;20312;-73
2023/08/13 05:15:08;;;;;;;7.73;5.00;;;17.50;99.90;;;16.95;94.03;101074.22;5057010;28;20281;-73
2023/08/13 05:17:40;;;;;;;8.30;4.97;;;17.40;99.90;;;16.95;93.80;101079.63;5056931;28;20191;-73
2023/08/13 05:20:12;;;;;;;7.10;5.10;;;17.50;99.90;;;16.97;94.01;101074.84;5056601;28;20706;-73
2023/08/13 05:22:44;;;;;;;7.17;5.00;;;17.50;99.90;;;16.96;94.12;101084.00;5057043;28;20316;-73
2023/08/13 05:25:16;;;;;;;5.50;4.77;;;17.40;99.90;;;16.95;93.29;101082.34;5056463;28;20198;-73
2023/08/13 05:27:49;;;;;;;7.43;4.80;;;17.40;99.90;;;16.96;93.37;101082.13;5056758;28;20278;-73
2023/08/13 05:30:21;;;;;;;9.23;5.00;;;17.40;99.90;;;16.97;94.01;101085.69;5056666;28;20291;-73
2023/08/13 05:32:53;;;;;;;9.60;5.30;;;17.50;99.90;;;16.97;94.02;101088.38;5056585;28;20307;-73
2023/08/13 05:35:25;;;;;;;6.27;4.70;;;17.50;99.90;;;16.99;94.36;101091.72;5056587;28;20224;-73
2023/08/13 05:37:57;;;;;;;8.93;5.53;;;17.50;99.90;;;17.01;93.76;101089.69;5056264;28;20281;-73
2023/08/13 05:40:31;;;;;;;8.60;4.47;;;17.50;99.90;;;17.03;94.20;101088.44;5056495;28;20182;-73
2023/08/13 05:43:04;;;;;;;5.43;4.93;;;17.60;99.90;;;17.07;93.39;101088.91;5056406;28;20226;-73
2023/08/13 05:45:36;;;;;;;7.57;5.27;;;17.60;99.90;;;17.09;93.45;101086.81;5056458;28;20277;-73
2023/08/13 05:48:09;;;;;;;8.47;5.00;;;17.60;99.90;;;17.15;93.53;101088.78;5055977;28;20222;-73
2023/08/13 05:50:41;;;;;;;8.63;4.93;;;17.70;99.90;;;17.18;93.03;101091.09;5055929;28;20206;-73
2023/08/13 05:53:13;;;;;;;7.37;5.10;;;17.70;99.90;;;17.21;92.55;101096.94;5055796;28;20230;-73
2023/08/13 05:55:45;;;;;;;10.03;5.63;;;17.80;99.90;;;17.26;93.14;101090.94;5055903;28;20655;-73
2023/08/13 05:58:18;;;;;;;7.43;4.90;;;17.70;99.90;;;17.30;92.87;101091.38;5056226;28;20566;-73
2023/08/13 06:00:50;;;;;;;6.87;5.10;;;17.80;99.90;;;17.36;92.70;101094.16;5055840;28;20205;-73
2023/08/13 06:03:22;;;;;;;6.07;4.80;;;17.90;99.90;;;17.39;92.08;101093.78;5056062;28;20225;-73
2023/08/13 06:05:58;;;;;;;8.87;4.77;;;18.00;99.90;;;17.44;91.54;101095.88;5056036;28;20256;-73
2023/08/13 06:08:30;;;;;;;7.97;5.03;;;18.00;99.90;;;17.48;90.93;101089.88;5055661;28;20229;-73
2023/08/13 06:11:03;;;;;;;6.50;5.00;;;18.00;99.90;;;17.53;91.18;101092.84;5055909;28;20690;-73
2023/08/13 06:13:38;;;;;;;6.57;4.90;;;18.10;99.90;;;17.57;90.94;101090.56;5055846;28;20269;-73
2023/08/13 06:16:11;;;;;;;7.80;5.30;;;18.10;99.90;;;17.58;90.03;101098.53;5055474;28;20548;-73
2023/08/13 06:18:43;;;;;;;8.23;5.10;;;18.20;99.90;;;17.62;90.29;101099.81;5055828;28;20541;-73
2023/08/13 06:21:16;;;;;;;9.27;5.30;;;18.20;99.90;;;17.64;90.41;101100.44;5055510;28;20662;-73
2023/08/13 06:23:48;;;;;;;9.47;5.00;;;18.20;99.90;;;17.65;90.41;101110.22;5055294;28;20616;-74
2023/08/13 06:26:19;;;;;;;8.93;5.23;;;18.20;99.90;;;17.68;90.25;101109.00;5055643;28;20285;-74
2023/08/13 06:28:52;;;;;;;9.40;4.90;;;18.20;99.90;;;17.72;89.44;101111.13;5055273;28;20210;-74
2023/08/13 06:31:24;;;;;;;6.07;4.50;;;18.30;99.90;;;17.79;89.49;101122.00;5055494;28;20301;-74
2023/08/13 06:34:14;;;;;;;7.67;4.70;;;18.30;99.90;;;17.81;89.36;101125.34;5055452;28;20238;-74
2023/08/13 06:36:47;;;;;;;8.33;4.90;;;18.30;99.90;;;17.85;90.47;101123.06;5055480;28;20218;-74
2023/08/13 06:39:19;;;;;;;8.67;4.80;;;18.40;99.90;;;17.84;89.01;101119.53;5055098;28;20230;-74
2023/08/13 06:41:51;;;;;;;6.97;4.23;;;18.40;99.90;;;17.88;87.90;101125.38;5055325;28;20256;-74
2023/08/13 06:44:25;;;;;;;8.50;4.60;;;18.40;99.90;;;17.90;89.22;101126.03;5055253;28;20232;-74
2023/08/13 06:46:57;;;;;;;9.80;4.80;;;18.40;99.90;;;17.90;88.90;101124.16;5055005;28;20256;-74
2023/08/13 06:49:29;;;;;;;9.00;4.37;;;18.50;99.90;;;17.95;88.54;101120.84;5055125;28;20190;-73
2023/08/13 06:52:01;;;;;;;8.57;4.80;;;18.50;99.90;;;17.97;88.36;101133.16;5054886;28;20222;-73
2023/08/13 06:54:33;;;;;;;6.80;4.47;;;18.60;99.90;;;18.01;87.19;101133.59;5054789;28;20714;-73
2023/08/13 06:57:05;;;;;;;7.50;4.43;;;18.60;99.90;;;18.06;87.67;101133.84;5055098;28;20217;-73
2023/08/13 06:59:38;;;;;;;10.07;4.03;;;18.60;99.90;;;18.12;85.57;101127.59;5054746;28;20273;-73
2023/08/13 07:02:10;;;;;;;7.57;4.20;;;18.80;99.90;;;18.16;87.40;101128.88;5054906;28;20200;-73
2023/08/13 07:04:42;;;;;;;10.87;4.57;;;18.70;99.90;;;18.23;84.70;101124.34;5053870;28;20636;-73
2023/08/13 07:07:14;;;;;;;7.07;4.00;;;18.90;99.90;;;18.36;83.98;101124.41;5054885;28;20201;-73
2023/08/13 07:09:47;;;;;;;8.93;3.80;;;19.00;99.90;;;18.45;82.09;101127.78;5054757;28;20260;-73
2023/08/13 07:12:19;;;;;;;8.20;3.93;;;19.00;99.90;;;18.50;83.07;101131.59;5054715;28;20241;-73
2023/08/13 07:14:52;;;;;;;8.47;3.87;;;19.10;99.90;;;18.55;82.89;101129.13;5054694;28;20187;-74
2023/08/13 07:17:24;;;;;;;7.30;3.80;;;19.30;99.90;;;18.56;83.93;101130.78;5054384;28;20236;-74
2023/08/13 07:19:56;;;;;;;7.87;3.50;;;19.10;99.90;;;18.58;82.70;101128.72;5054676;28;20236;-74
2023/08/13 07:22:27;;;;;;;9.40;3.73;;;19.20;99.90;;;18.68;82.11;101134.59;5054541;28;20214;-74
2023/08/13 07:24:59;;;;;;;8.23;3.70;;;19.30;99.90;;;18.66;82.10;101131.22;5054221;28;20198;-74
2023/08/13 07:27:32;;;;;;;7.67;4.00;;;19.30;99.90;;;18.68;78.84;101129.16;5054148;28;20202;-74
2023/08/13 07:30:07;;;;;;;10.10;3.87;;;19.30;99.90;;;18.72;79.35;101135.00;5054094;28;20252;-74
2023/08/13 07:32:41;;;;;;;8.87;3.93;;;19.40;99.90;;;18.77;80.70;101134.41;5054344;28;20233;-73
2023/08/13 07:35:14;;;;;;;8.97;3.60;;;19.30;99.90;;;18.77;79.29;101137.13;5054065;28;20281;-73
2023/08/13 07:37:46;;;;;;;10.07;3.57;;;19.40;99.90;;;18.78;78.42;101134.19;5054322;28;20190;-73
2023/08/13 07:40:18;;;;;;;5.93;3.10;;;19.40;99.90;;;18.79;79.56;101141.28;5054265;28;20190;-73
2023/08/13 07:42:50;;;;;;;7.17;3.57;;;19.40;99.90;;;18.89;80.75;101135.47;5054132;28;20312;-74
2023/08/13 07:45:23;;;;;;;7.93;3.70;;;19.40;99.90;;;18.95;76.40;101135.50;5054169;28;20222;-74
2023/08/13 07:47:56;;;;;;;6.30;3.70;;;19.50;99.90;;;19.01;76.49;101140.09;5053676;28;20710;-74
2023/08/13 07:50:28;;;;;;;4.97;3.10;;;19.60;99.90;;;19.01;78.14;101139.25;5053677;28;20304;-74
2023/08/13 07:53:00;;;;;;;8.87;3.73;;;19.60;99.90;;;19.07;77.39;101133.03;5053640;28;20707;-74
2023/08/13 07:55:35;;;;;;;8.80;3.47;;;19.60;99.90;;;19.10;76.83;101132.59;5053669;28;20641;-74
2023/08/13 07:58:06;;;;;;;9.90;3.37;;;19.60;99.90;;;19.05;79.13;101135.94;5053948;28;20277;-74
2023/08/13 08:00:40;;;;;;;6.57;3.63;;;19.60;99.90;;;19.07;79.10;101143.88;5053861;28;20241;-74
2023/08/13 08:03:13;;;;;;;7.77;3.37;;;19.60;99.90;;;19.10;76.47;101138.88;5053802;28;20283;-74
2023/08/13 08:05:47;;;;;;;8.87;3.03;;;19.60;99.90;;;19.13;74.01;101140.34;5053843;28;20229;-74
2023/08/13 08:08:19;;;;;;;10.17;3.07;;;19.70;99.90;;;19.26;71.23;101132.19;5053478;28;20209;-74
2023/08/13 08:10:51;;;;;;;6.10;2.80;;;19.80;99.90;;;19.33;71.67;101130.31;5053669;28;20241;-74
2023/08/13 08:13:23;;;;;;;6.17;2.93;;;19.90;99.90;;;19.43;71.48;101130.78;5053641;28;20226;-74
2023/08/13 08:15:56;;;;;;;6.00;2.70;;;20.00;99.90;;;19.44;73.04;101135.19;5053567;28;20186;-74
2023/08/13 08:18:29;;;;;;;8.27;2.87;;;20.00;99.90;;;19.57;71.62;101135.16;5053615;28;20198;-74
2023/08/13 08:21:00;;;;;;;8.43;3.27;;;20.10;99.90;;;19.63;72.61;101123.47;5053613;28;20255;-74
2023/08/13 08:23:33;;;;;;;5.83;3.10;;;20.20;99.90;;;19.72;71.91;101137.69;5053168;28;20300;-74
2023/08/13 08:26:05;;;;;;;6.77;2.63;;;20.30;99.90;;;19.66;73.01;101133.06;5053151;28;20719;-75
2023/08/13 08:28:37;;;;;;;6.37;3.00;;;20.30;99.90;;;19.73;72.49;101129.31;5053221;28;20534;-74
2023/08/13 08:31:12;;;;;;;5.47;2.77;;;20.40;99.90;;;19.83;72.52;101122.63;5053420;28;20332;-74
2023/08/13 08:33:44;;;;;;;10.00;2.63;;;20.50;99.90;;;19.87;72.46;101123.84;5053396;28;20224;-74
2023/08/13 08:36:15;;;;;;;5.70;2.77;;;20.50;99.90;;;20.03;71.49;101128.84;5053134;28;20256;-74
2023/08/13 08:38:47;;;;;;;6.23;2.10;;;20.60;99.90;;;20.21;67.99;101134.44;5053107;28;20193;-74
2023/08/13 08:41:23;;;;;;;6.53;2.40;;;20.80;99.90;;;20.28;69.33;101126.28;5053402;28;20190;-74
2023/08/13 08:43:58;;;;;;;4.23;2.37;;;20.90;99.90;;;20.33;68.17;101124.59;5052945;28;20725;-74
2023/08/13 08:46:34;;;;;;;6.43;2.47;;;20.90;99.90;;;20.32;67.20;101130.25;5052891;28;20304;-74
2023/08/13 08:49:06;;;;;;;5.60;2.50;;;20.90;99.90;;;20.29;66.72;101128.81;5053342;28;20194;-74
2023/08/13 08:51:39;;;;;;;5.47;2.23;;;20.90;99.90;;;20.34;67.16;101126.28;5053238;28;20246;-74
2023/08/13 08:54:11;;;;;;;6.03;2.30;;;21.00;99.90;;;20.38;67.48;101132.94;5053165;28;20234;-74
2023/08/13 08:56:43;;;;;;;5.03;2.20;;;20.90;99.90;;;20.36;68.60;101129.63;5052956;28;20591;-74
2023/08/13 08:59:15;;;;;;;5.77;2.17;;;20.90;99.90;;;20.40;70.17;101125.41;5052903;28;20282;-74
2023/08/13 09:01:48;;;;;;;6.27;2.33;;;21.00;99.90;;;20.58;65.67;101128.25;5053222;28;20282;-74
2023/08/13 09:04:20;;;;;;;5.20;2.47;;;21.20;99.90;;;20.53;66.05;101124.53;5053085;28;20226;-74
2023/08/13 09:07:03;;;;;;;5.37;2.47;;;21.20;99.90;;;20.58;66.74;101136.41;5052842;28;20289;-74
2023/08/13 09:09:36;;;;;;;8.17;2.13;;;21.20;99.90;;;20.58;65.78;101127.44;5052842;28;20190;-74
2023/08/13 09:12:08;;;;;;;6.60;2.20;;;21.20;99.90;;;20.56;68.51;101124.91;5053029;28;20245;-74
2023/08/13 09:14:40;;;;;;;7.90;2.50;;;21.10;99.90;;;20.75;65.42;101120.44;5053546;28;20531;-74
2023/08/13 09:17:16;;;;;;;4.07;2.00;;;21.30;99.90;;;20.90;64.37;101120.13;5053563;28;20194;-74
2023/08/13 09:19:48;;;;;;;3.63;2.30;;;21.50;99.90;;;20.92;66.39;101123.50;5053019;28;20675;-74
2023/08/13 09:22:22;;;;;;;5.03;2.13;;;21.50;99.90;;;21.05;65.69;101112.50;5052659;28;20641;-74
2023/08/13 09:24:53;;;;;;;4.30;2.30;;;21.70;99.90;;;21.10;65.60;101115.44;5052612;28;20557;-73
2023/08/13 09:27:26;;;;;;;4.27;2.43;;;21.70;99.90;;;21.26;64.72;101111.34;5052571;28;20636;-73
2023/08/13 09:29:59;;;;;;;6.30;2.17;;;21.80;99.90;;;21.29;63.73;101114.47;5056461;28;20283;-74
2023/08/13 09:32:36;;;;;;;5.93;1.90;;;21.90;99.90;;;21.41;61.97;101112.69;5056557;28;20229;-74
2023/08/13 09:35:10;;;;;;;7.13;2.47;;;22.00;99.90;;;21.52;62.33;101117.41;5056313;28;20203;-74
2023/08/13 09:37:42;;;;;;;3.90;2.00;;;22.10;99.90;;;21.50;63.31;101114.09;5056600;28;20256;-74
2023/08/13 09:40:13;;;;;;;4.53;2.17;;;22.10;99.90;;;21.60;62.09;101111.69;5056276;28;20620;-74
2023/08/13 09:42:53;;;;;;;2.87;1.73;;;22.20;99.90;;;21.63;62.01;101116.69;5056440;28;20230;-74
2023/08/13 09:45:27;;;;;;;5.27;2.53;;;22.10;99.90;;;21.59;63.64;101115.47;5056365;28;20285;-74
2023/08/13 09:48:04;;;;;;;6.23;2.30;;;22.20;99.90;;;21.71;61.02;101119.09;5056113;28;20221;-74
2023/08/13 09:50:42;;;;;;;4.40;2.13;;;22.20;99.90;;;21.81;61.11;101124.06;5056394;28;20609;-74
2023/08/13 09:53:20;;;;;;;3.90;2.20;;;22.30;99.90;;;21.88;59.29;101116.66;5056234;28;20264;-74
2023/08/13 09:56:01;;;;;;;6.87;2.20;;;22.40;99.90;;;22.02;59.43;101120.13;5056289;28;20223;-74
2023/08/13 09:58:34;;;;;;;3.00;1.80;;;22.60;99.90;;;22.08;58.93;101117.31;5056210;28;20213;-74
2023/08/13 10:01:07;;;;;;;5.00;1.83;;;22.60;99.90;;;22.09;61.78;101110.78;5056031;28;20611;-74
2023/08/13 10:03:42;;;;;;;4.67;1.57;;;22.60;99.90;;;22.16;60.34;101107.97;5055689;28;20708;-74
2023/08/13 10:06:16;;;;;;;4.30;2.17;;;22.70;99.90;;;22.21;58.93;101108.16;5056074;28;20200;-74
2023/08/13 10:08:48;;;;;;;3.63;1.80;;;22.80;99.90;;;22.20;59.58;101111.94;5055670;28;20637;-74
2023/08/13 10:11:22;;;;;;;5.67;2.23;;;22.70;99.90;;;22.22;61.09;101112.56;5055906;28;20300;-74
2023/08/13 10:13:55;;;;;;;5.43;2.33;;;22.70;99.90;;;22.33;59.89;101117.22;5055870;28;20262;-74
2023/08/13 10:16:29;;;;;;;5.23;2.50;;;22.80;99.90;;;22.37;62.03;101114.88;5055919;28;20201;-74
2023/08/13 10:19:07;;;;;;;3.43;2.00;;;22.80;99.90;;;22.35;58.55;101112.38;5055803;28;20187;-74
2023/08/13 10:21:39;;;;;;;5.73;2.40;;;22.90;99.90;;;22.42;59.06;101104.97;5055483;28;20602;-74
2023/08/13 10:24:16;;;;;;;4.73;2.20;;;23.00;99.90;;;22.42;59.38;101115.88;5055333;28;20795;-74
2023/08/13 10:26:48;;;;;;;3.67;2.03;;;22.90;99.90;;;22.50;58.15;101112.00;5055746;28;20194;-74
2023/08/13 10:29:22;;;;;;;4.20;2.23;;;23.00;99.90;;;22.62;58.52;101115.59;5055366;28;20612;-74
2023/08/13 10:32:10;;;;;;;6.00;2.50;;;23.10;99.90;;;22.62;58.20;101108.25;5055182;28;20303;-73
2023/08/13 10:34:50;;;;;;;5.50;2.27;;;23.10;99.90;;;22.60;57.21;101109.56;5055569;28;20195;-73
2023/08/13 10:37:24;;;;;;;5.40;2.33;;;23.00;99.90;;;22.63;56.85;101107.22;5055510;28;20198;-75